Time;durP1;ratioP1;P1;durP2;ratioP2;P2;SDS_P1;SDS_P2;PMS_P1;PMS_P2;Temp;Humidity;BMP_temperature;BMP_pressure;BME280_temperature;BME280_humidity;BME280_pressure;Samples;Min_cycle;Max_cycle;Signal;HPM_P1;HPM_P2
2023/07/24 00:02:06;;;;;;;2.10;1.80;;;;;;;18.60;76.12;97909.09;5026221;28;20035;-84
2023/07/24 00:04:32;;;;;;;2.17;1.98;;;;;;;18.36;77.69;97898.00;5027188;28;20488;-83
2023/07/24 00:06:57;;;;;;;6.18;2.33;;;;;;;18.20;77.57;97886.13;5021481;28;20052;-84
2023/07/24 00:09:23;;;;;;;2.45;1.90;;;;;;;18.16;77.66;97877.06;5021513;28;20446;-83
2023/07/24 00:11:48;;;;;;;3.30;1.88;;;;;;;18.53;76.44;97889.88;5010329;28;20030;-83
2023/07/24 00:14:15;;;;;;;3.17;1.98;;;;;;;18.54;76.19;97881.44;5025426;28;20025;-83
2023/07/24 00:16:40;;;;;;;4.90;2.13;;;;;;;18.29;76.82;97870.69;5030896;28;20040;-83
2023/07/24 00:19:06;;;;;;;4.65;1.75;;;;;;;18.45;76.77;97877.19;5026489;28;20038;-83
2023/07/24 00:21:31;;;;;;;4.60;1.60;;;;;;;18.48;76.07;97879.25;5044455;28;20481;-83
2023/07/24 00:23:57;;;;;;;4.68;2.15;;;;;;;18.48;76.17;97881.94;5026562;28;20068;-84
2023/07/24 00:26:22;;;;;;;3.65;1.70;;;;;;;18.52;76.04;97885.59;5012902;28;20099;-83
2023/07/24 00:28:47;;;;;;;4.13;2.20;;;;;;;18.51;76.03;97884.00;5007458;28;20559;-85
2023/07/24 00:31:13;;;;;;;6.55;2.97;;;;;;;18.32;76.20;97870.06;5042732;28;20060;-83
2023/07/24 00:33:38;;;;;;;1.83;1.67;;;;;;;18.45;76.39;97885.31;5009994;28;20560;-83
2023/07/24 00:36:04;;;;;;;2.67;2.30;;;;;;;18.36;76.41;97882.59;5014469;28;20116;-84
2023/07/24 00:38:29;;;;;;;2.72;1.70;;;;;;;18.27;76.00;97875.63;5016657;28;20397;-83
2023/07/24 00:40:54;;;;;;;2.30;2.00;;;;;;;17.86;77.92;97873.47;5028887;28;20029;-83
2023/07/24 00:43:20;;;;;;;2.20;2.00;;;;;;;17.74;79.17;97876.81;5029243;28;20125;-83
2023/07/24 00:45:47;;;;;;;2.70;2.42;;;;;;;17.94;77.16;97878.88;5016909;28;20028;-83
2023/07/24 00:48:12;;;;;;;1.98;1.88;;;;;;;18.02;77.51;97884.56;5024424;28;20056;-84
2023/07/24 00:50:38;;;;;;;2.30;1.80;;;;;;;18.06;76.83;97874.72;5035380;28;20029;-84
2023/07/24 00:53:04;;;;;;;5.15;1.83;;;;;;;18.10;75.82;97865.66;5014029;28;20139;-83
2023/07/24 00:55:30;;;;;;;3.35;2.30;;;;;;;17.96;76.81;97860.44;5021996;28;20116;-84
2023/07/24 00:57:57;;;;;;;8.88;2.50;;;;;;;17.91;77.84;97876.78;5011250;28;20080;-83
2023/07/24 01:00:23;;;;;;;4.43;1.77;;;;;;;18.09;76.16;97857.84;5036407;28;20041;-83
2023/07/24 01:02:48;;;;;;;3.33;2.08;;;;;;;18.13;75.79;97845.31;5027346;28;20048;-84
2023/07/24 01:05:17;;;;;;;2.58;2.10;;;;;;;18.07;76.30;97860.88;5000551;28;20095;-83
2023/07/24 01:07:42;;;;;;;2.75;1.75;;;;;;;18.20;76.31;97857.19;5026504;28;20649;-83
2023/07/24 01:10:08;;;;;;;2.55;1.73;;;;;;;18.07;76.58;97863.59;5030375;28;20029;-84
2023/07/24 01:12:59;;;;;;;2.83;2.00;;;;;;;18.01;76.46;97850.56;5030454;28;20053;-84
2023/07/24 01:15:52;;;;;;;3.08;1.77;;;;;;;17.86;77.52;97841.88;5027871;28;20392;-84
2023/07/24 01:18:20;;;;;;;2.08;1.85;;;;;;;17.96;76.91;97844.22;5030239;28;20100;-83
2023/07/24 01:20:50;;;;;;;5.10;1.98;;;;;;;18.08;77.40;97859.78;5029974;28;20381;-83
2023/07/24 01:23:43;;;;;;;2.25;1.63;;;;;;;18.04;77.30;97864.25;5031389;28;20477;-83
2023/07/24 01:26:10;;;;;;;2.28;2.08;;;;;;;17.98;77.61;97866.31;5027319;28;20080;-84
2023/07/24 01:28:35;;;;;;;5.00;2.47;;;;;;;17.97;77.86;97862.00;5025913;28;20029;-83
2023/07/24 01:31:01;;;;;;;2.70;1.80;;;;;;;18.03;78.10;97883.44;5031696;28;20543;-83
2023/07/24 01:33:26;;;;;;;2.28;1.90;;;;;;;18.05;77.76;97865.81;5019309;28;20556;-83
2023/07/24 01:35:58;;;;;;;3.53;2.47;;;;;;;17.89;77.95;97854.72;5022122;28;20421;-84
2023/07/24 01:38:25;;;;;;;2.72;2.40;;;;;;;18.03;77.68;97867.25;5031198;28;20117;-84
2023/07/24 01:40:52;;;;;;;2.65;2.03;;;;;;;17.95;77.90;97864.22;5032684;28;20022;-83
2023/07/24 01:43:18;;;;;;;5.78;2.40;;;;;;;18.17;77.57;97879.47;5025951;28;20034;-84
2023/07/24 01:45:43;;;;;;;3.45;3.15;;;;;;;17.96;78.06;97863.13;5026670;28;20053;-83
2023/07/24 01:48:08;;;;;;;6.65;2.33;;;;;;;18.05;77.64;97863.13;5013000;28;20064;-83
2023/07/24 01:50:34;;;;;;;4.07;2.38;;;;;;;18.05;77.59;97878.53;5024328;28;20029;-84
2023/07/24 01:52:59;;;;;;;4.38;2.35;;;;;;;18.11;77.36;97869.94;5024280;28;20048;-83
2023/07/24 01:55:25;;;;;;;2.30;2.10;;;;;;;18.10;77.61;97852.16;5009571;28;20041;-83
2023/07/24 01:57:50;;;;;;;2.55;2.20;;;;;;;18.02;78.32;97869.16;5025641;28;20107;-83
2023/07/24 02:00:16;;;;;;;3.05;2.33;;;;;;;18.00;78.24;97874.06;5029601;28;20064;-84
2023/07/24 02:02:41;;;;;;;5.70;2.30;;;;;;;18.12;77.72;97868.03;5029400;28;20068;-83
2023/07/24 02:05:07;;;;;;;4.68;2.28;;;;;;;18.00;78.29;97871.38;5026588;28;20904;-83
2023/07/24 02:07:32;;;;;;;3.10;2.22;;;;;;;18.07;77.77;97857.38;5025246;28;20026;-84
2023/07/24 02:09:58;;;;;;;3.00;2.28;;;;;;;17.97;77.37;97842.34;5032268;28;20551;-83
2023/07/24 02:12:23;;;;;;;3.03;2.30;;;;;;;18.05;77.88;97854.22;4993647;28;20022;-83
2023/07/24 02:14:49;;;;;;;4.00;2.90;;;;;;;17.94;78.09;97837.56;5024082;28;20044;-83
2023/07/24 02:17:15;;;;;;;4.35;2.45;;;;;;;18.01;78.16;97854.06;5024673;28;20451;-83
2023/07/24 02:19:41;;;;;;;3.67;2.40;;;;;;;18.04;77.38;97852.66;5024365;28;20029;-84
2023/07/24 02:22:06;;;;;;;5.40;2.95;;;;;;;17.94;78.14;97838.38;5025260;28;20030;-83
2023/07/24 02:24:32;;;;;;;2.50;2.28;;;;;;;17.92;78.44;97840.59;5002563;28;20310;-84
2023/07/24 02:26:57;;;;;;;4.20;2.92;;;;;;;17.64;80.49;97816.97;5039247;28;20036;-84
2023/07/24 02:29:22;;;;;;;3.47;2.38;;;;;;;17.71;78.87;97825.38;5022703;28;20034;-84
2023/07/24 02:31:48;;;;;;;3.17;2.15;;;;;;;17.90;78.50;97842.03;5030000;28;20033;-83
2023/07/24 02:34:13;;;;;;;3.58;2.30;;;;;;;17.71;81.13;97841.56;5029018;28;20507;-83
2023/07/24 02:36:41;;;;;;;2.78;2.47;;;;;;;17.87;78.39;97831.84;5032624;28;20037;-84
2023/07/24 02:39:06;;;;;;;2.92;2.20;;;;;;;17.87;78.64;97823.75;5026071;28;20037;-83
2023/07/24 02:41:32;;;;;;;4.38;2.58;;;;;;;17.93;78.52;97822.50;5014961;28;20040;-83
2023/07/24 02:43:57;;;;;;;6.43;2.97;;;;;;;18.00;77.83;97822.00;5008703;28;20425;-83
2023/07/24 02:46:24;;;;;;;2.88;2.58;;;;;;;18.00;78.77;97835.50;5030149;28;20042;-83
2023/07/24 02:48:50;;;;;;;3.17;2.35;;;;;;;18.04;77.79;97829.16;5023513;28;20389;-83
2023/07/24 02:51:15;;;;;;;4.32;2.70;;;;;;;18.00;77.73;97824.69;5022347;28;20033;-83
2023/07/24 02:53:41;;;;;;;8.43;2.75;;;;;;;18.01;77.71;97826.28;5036922;28;20439;-83
2023/07/24 02:56:06;;;;;;;5.68;2.72;;;;;;;18.06;78.04;97828.81;5016715;28;20511;-83
2023/07/24 02:58:31;;;;;;;3.45;2.38;;;;;;;18.07;77.56;97822.28;5027564;28;20041;-83
2023/07/24 03:01:05;;;;;;;2.47;2.20;;;;;;;17.97;77.89;97826.91;5006145;28;20037;-83
2023/07/24 03:03:31;;;;;;;4.38;2.53;;;;;;;18.08;78.01;97827.38;5022627;28;20022;-83
2023/07/24 03:05:56;;;;;;;3.38;2.70;;;;;;;18.04;77.77;97815.63;5024956;28;20087;-83
2023/07/24 03:08:22;;;;;;;4.70;2.55;;;;;;;17.98;78.35;97833.91;5006628;28;20040;-83
2023/07/24 03:10:47;;;;;;;6.65;3.17;;;;;;;17.86;78.25;97825.69;5038439;28;20129;-83
2023/07/24 03:13:12;;;;;;;4.40;2.63;;;;;;;17.79;79.01;97827.25;5014070;28;20041;-83
2023/07/24 03:15:37;;;;;;;3.13;2.65;;;;;;;17.87;78.00;97829.16;5021761;28;20045;-83
2023/07/24 03:18:03;;;;;;;6.85;3.03;;;;;;;17.76;78.51;97822.50;5008255;28;20036;-84
2023/07/24 03:20:28;;;;;;;4.30;2.83;;;;;;;17.63;79.31;97808.06;5032693;28;20095;-83
2023/07/24 03:22:53;;;;;;;4.78;2.78;;;;;;;17.72;78.52;97805.34;5009363;28;20404;-83
2023/07/24 03:25:19;;;;;;;4.20;3.28;;;;;;;17.82;78.37;97830.09;5013594;28;20091;-83
2023/07/24 03:27:44;;;;;;;5.30;2.60;;;;;;;17.81;78.91;97833.13;5024036;28;20044;-83
2023/07/24 03:30:10;;;;;;;6.13;2.67;;;;;;;17.70;78.79;97819.19;5014996;28;20072;-83
2023/07/24 03:32:37;;;;;;;5.63;2.60;;;;;;;17.56;79.89;97815.84;5027307;28;20060;-83
2023/07/24 03:35:03;;;;;;;4.65;2.85;;;;;;;17.41;83.34;97816.28;5034152;28;20032;-83
2023/07/24 03:37:29;;;;;;;5.53;3.72;;;;;;;17.52;81.35;97819.50;5026379;28;20103;-83
2023/07/24 03:39:54;;;;;;;4.13;3.42;;;;;;;17.70;80.43;97810.28;5023443;28;20049;-83
2023/07/24 03:42:32;;;;;;;9.80;2.75;;;;;;;17.76;79.58;97793.59;5020659;28;20068;-83
2023/07/24 03:44:57;;;;;;;5.28;2.70;;;;;;;17.96;77.70;97795.63;5003000;28;20068;-83
2023/07/24 03:47:24;;;;;;;4.50;2.53;;;;;;;18.05;77.58;97792.91;5022041;28;20033;-83
2023/07/24 03:49:50;;;;;;;5.00;2.65;;;;;;;18.02;77.16;97798.16;5007543;28;20375;-83
2023/07/24 03:52:15;;;;;;;9.20;3.25;;;;;;;17.95;77.77;97791.34;5023634;28;20053;-83
2023/07/24 03:54:41;;;;;;;7.90;2.58;;;;;;;18.03;77.21;97791.63;5024908;28;20143;-82
2023/07/24 03:57:06;;;;;;;5.95;3.58;;;;;;;18.06;77.40;97791.81;5024857;28;20094;-83
2023/07/24 03:59:32;;;;;;;4.57;2.55;;;;;;;18.02;77.51;97785.44;5003451;28;20168;-83
2023/07/24 04:01:58;;;;;;;3.65;2.47;;;;;;;17.94;77.47;97773.56;5013056;28;20037;-82
2023/07/24 04:04:23;;;;;;;3.25;2.83;;;;;;;17.86;77.38;97766.28;5009577;28;20029;-82
2023/07/24 04:06:48;;;;;;;8.13;2.45;;;;;;;17.94;77.64;97776.25;5023172;28;20140;-83
2023/07/24 04:09:14;;;;;;;3.42;2.78;;;;;;;17.97;77.76;97769.44;5023797;28;20021;-83
2023/07/24 04:11:43;;;;;;;5.00;2.92;;;;;;;17.98;77.42;97769.09;5032655;28;20052;-83
2023/07/24 04:14:09;;;;;;;4.05;2.80;;;;;;;18.07;77.21;97771.78;5006349;28;20371;-83
2023/07/24 04:16:35;;;;;;;3.95;2.72;;;;;;;18.15;77.11;97773.63;5024521;28;20049;-82
2023/07/24 04:19:00;;;;;;;4.78;3.65;;;;;;;18.00;77.49;97768.75;5023426;28;20033;-82
2023/07/24 04:21:25;;;;;;;5.40;2.72;;;;;;;18.11;76.82;97769.22;5027930;28;20064;-82
2023/07/24 04:23:51;;;;;;;4.07;2.90;;;;;;;18.05;77.35;97768.59;5007457;28;20503;-82
2023/07/24 04:26:16;;;;;;;4.03;2.83;;;;;;;18.09;77.13;97779.53;5030827;28;20033;-82
2023/07/24 04:28:42;;;;;;;4.53;3.00;;;;;;;18.04;76.89;97771.63;5026780;28;20021;-82
2023/07/24 04:31:07;;;;;;;4.30;2.65;;;;;;;17.89;77.45;97759.44;5027019;28;20029;-82
2023/07/24 04:33:32;;;;;;;3.88;2.80;;;;;;;17.90;78.27;97756.44;5028847;28;20033;-82
2023/07/24 04:35:58;;;;;;;6.28;3.03;;;;;;;18.00;77.95;97762.59;5010641;28;20056;-82
2023/07/24 04:38:23;;;;;;;4.50;3.00;;;;;;;18.01;77.56;97747.97;5007905;28;20393;-82
2023/07/24 04:40:48;;;;;;;4.05;2.92;;;;;;;17.96;77.89;97749.72;5028761;28;20122;-82
2023/07/24 04:43:14;;;;;;;6.75;2.80;;;;;;;17.89;77.98;97730.53;5017986;28;20419;-82
2023/07/24 04:45:39;;;;;;;5.97;2.90;;;;;;;17.94;78.42;97729.56;5044060;28;20053;-83
2023/07/24 04:48:05;;;;;;;6.07;3.05;;;;;;;18.07;77.84;97744.75;5021724;28;20227;-83
2023/07/24 04:50:30;;;;;;;4.57;2.78;;;;;;;18.11;77.62;97748.41;5013456;28;20033;-83
2023/07/24 04:52:56;;;;;;;3.55;3.00;;;;;;;18.19;77.50;97752.19;5029358;28;20108;-82
2023/07/24 04:55:21;;;;;;;8.25;3.45;;;;;;;17.97;80.88;97739.72;5026123;28;20029;-83
2023/07/24 04:57:47;;;;;;;5.60;2.92;;;;;;;18.03;79.43;97729.53;5024331;28;20048;-82
2023/07/24 05:00:13;;;;;;;3.70;2.97;;;;;;;17.97;79.46;97729.69;5025595;28;20037;-82
2023/07/24 05:02:39;;;;;;;5.00;2.97;;;;;;;18.00;79.57;97749.88;5031521;28;20030;-82
2023/07/24 05:05:07;;;;;;;9.35;3.63;;;;;;;18.12;78.26;97744.59;5035075;28;20030;-82
2023/07/24 05:07:32;;;;;;;11.20;3.95;;;;;;;18.09;80.36;97742.53;5017319;28;20038;-82
2023/07/24 05:09:58;;;;;;;7.90;3.55;;;;;;;17.94;81.38;97719.56;5026108;28;20040;-82
2023/07/24 05:12:24;;;;;;;5.00;3.17;;;;;;;18.03;79.93;97733.03;5025421;28;20112;-82
2023/07/24 05:14:49;;;;;;;6.20;3.10;;;;;;;18.29;77.35;97746.41;5030340;28;20060;-83
2023/07/24 05:17:15;;;;;;;7.35;3.03;;;;;;;18.23;76.95;97728.81;5024127;28;20026;-82
2023/07/24 05:19:40;;;;;;;9.10;3.13;;;;;;;18.23;77.79;97731.50;5015133;28;20033;-83
2023/07/24 05:22:05;;;;;;;4.43;2.75;;;;;;;18.24;77.33;97720.38;5015582;28;20029;-82
2023/07/24 05:24:31;;;;;;;4.53;3.03;;;;;;;18.27;76.59;97708.13;4995861;28;20389;-82
2023/07/24 05:26:56;;;;;;;5.00;2.80;;;;;;;18.29;76.74;97719.41;5012198;28;20037;-83
2023/07/24 05:29:21;;;;;;;11.38;3.35;;;;;;;18.32;77.62;97721.47;4999144;28;20405;-83
2023/07/24 05:31:47;;;;;;;6.07;2.88;;;;;;;18.20;81.13;97718.66;5004641;28;20474;-83
2023/07/24 05:34:12;;;;;;;6.05;3.25;;;;;;;18.38;78.91;97718.25;5034544;28;20684;-83
2023/07/24 05:36:38;;;;;;;5.85;3.05;;;;;;;18.23;80.62;97715.31;5010727;28;20025;-83
2023/07/24 05:39:03;;;;;;;4.47;3.10;;;;;;;18.37;79.59;97713.19;5036134;28;20120;-83
2023/07/24 05:41:28;;;;;;;5.25;2.92;;;;;;;18.45;79.15;97729.38;5032535;28;20064;-83
2023/07/24 05:43:55;;;;;;;4.85;3.33;;;;;;;18.48;78.73;97725.19;5029665;28;20033;-83
2023/07/24 05:46:20;;;;;;;6.15;3.35;;;;;;;18.52;78.79;97726.94;5015142;28;20029;-83
2023/07/24 05:48:46;;;;;;;3.97;2.88;;;;;;;18.43;79.43;97709.16;5024390;28;20033;-81
2023/07/24 05:51:11;;;;;;;5.03;2.80;;;;;;;18.38;78.73;97698.53;5014289;28;20053;-81
2023/07/24 05:53:36;;;;;;;3.63;3.05;;;;;;;18.43;80.08;97698.34;5009127;28;20417;-81
2023/07/24 05:56:03;;;;;;;3.35;2.83;;;;;;;18.52;79.07;97697.19;5005491;28;20117;-81
2023/07/24 05:58:28;;;;;;;7.07;3.30;;;;;;;18.55;81.81;97704.66;5031878;28;20679;-82
2023/07/24 06:00:55;;;;;;;8.80;3.40;;;;;;;18.60;79.00;97698.28;5014592;28;20043;-81
2023/07/24 06:03:21;;;;;;;5.47;2.92;;;;;;;18.63;80.36;97700.34;5021724;28;20044;-80
2023/07/24 06:05:51;;;;;;;4.40;3.13;;;;;;;18.57;78.41;97686.22;5049548;28;20025;-80
2023/07/24 06:08:16;;;;;;;10.27;3.15;;;;;;;18.63;78.97;97693.00;5030157;28;20381;-80
2023/07/24 06:10:42;;;;;;;3.95;2.60;;;;;;;18.73;78.09;97686.41;5031388;28;20029;-81
2023/07/24 06:13:07;;;;;;;5.57;3.30;;;;;;;18.74;78.15;97676.41;5021858;28;20451;-80
2023/07/24 06:15:32;;;;;;;4.82;3.00;;;;;;;18.87;76.92;97689.63;5003393;28;20149;-80
2023/07/24 06:17:58;;;;;;;5.20;3.10;;;;;;;18.94;76.54;97700.72;5028284;28;20123;-80
2023/07/24 06:20:23;;;;;;;6.20;3.15;;;;;;;18.76;79.70;97699.28;5037622;28;20442;-80
2023/07/24 06:22:48;;;;;;;3.78;3.00;;;;;;;18.83;77.39;97696.84;5012903;28;20540;-81
2023/07/24 06:25:14;;;;;;;4.90;3.22;;;;;;;18.84;77.47;97700.34;5010427;28;20105;-81
2023/07/24 06:27:39;;;;;;;3.92;2.88;;;;;;;18.88;77.39;97696.66;5010486;28;20021;-80
2023/07/24 06:30:05;;;;;;;8.07;4.18;;;;;;;18.91;76.69;97687.88;5031953;28;20057;-81
2023/07/24 06:32:31;;;;;;;7.32;3.50;;;;;;;19.06;77.52;97695.38;4995564;28;20040;-80
2023/07/24 06:34:56;;;;;;;4.78;3.22;;;;;;;19.02;77.65;97696.38;5010312;28;20144;-80
2023/07/24 06:37:22;;;;;;;4.85;3.60;;;;;;;18.83;78.60;97680.59;5029985;28;20025;-80
2023/07/24 06:39:47;;;;;;;6.38;3.38;;;;;;;18.84;79.21;97684.91;5028365;28;20111;-80
2023/07/24 06:42:12;;;;;;;5.22;3.97;;;;;;;18.90;78.73;97689.00;5024799;28;20072;-80
2023/07/24 06:44:38;;;;;;;5.07;3.03;;;;;;;18.93;78.99;97682.94;5008814;28;20033;-80
2023/07/24 06:47:03;;;;;;;3.47;3.10;;;;;;;18.87;79.66;97675.34;5012774;28;20033;-80
2023/07/24 06:49:29;;;;;;;6.10;3.10;;;;;;;18.96;78.42;97678.78;5030290;28;20044;-80
2023/07/24 06:51:54;;;;;;;7.85;3.17;;;;;;;19.02;78.50;97662.03;5030457;28;20064;-80
2023/07/24 06:54:19;;;;;;;5.95;4.15;;;;;;;18.88;78.63;97658.00;5029548;28;20088;-80
2023/07/24 06:56:45;;;;;;;7.65;3.72;;;;;;;19.03;77.96;97654.69;5024980;28;20091;-80
2023/07/24 06:59:10;;;;;;;7.05;3.70;;;;;;;19.00;78.65;97655.34;5004291;28;20099;-80
2023/07/24 07:01:35;;;;;;;5.97;3.45;;;;;;;19.22;77.67;97649.59;5018514;28;20025;-80
2023/07/24 07:04:01;;;;;;;10.32;3.83;;;;;;;19.12;77.72;97641.88;5015499;28;20032;-80
2023/07/24 07:06:26;;;;;;;4.80;3.72;;;;;;;19.19;77.52;97645.63;5024549;28;20159;-80
2023/07/24 07:08:51;;;;;;;6.50;3.67;;;;;;;19.12;77.29;97629.13;5028040;28;20080;-80
2023/07/24 07:11:17;;;;;;;9.30;3.58;;;;;;;19.24;77.14;97633.81;5006117;28;20572;-80
2023/07/24 07:13:42;;;;;;;8.20;3.78;;;;;;;19.22;76.96;97626.00;5029454;28;20485;-80
2023/07/24 07:16:07;;;;;;;7.80;4.20;;;;;;;19.34;76.87;97626.09;4994329;28;20044;-82
2023/07/24 07:18:33;;;;;;;8.95;3.80;;;;;;;19.29;76.66;97626.25;5023968;28;20036;-80
2023/07/24 07:20:58;;;;;;;7.63;4.68;;;;;;;19.31;76.83;97624.00;5009374;28;20029;-80
2023/07/24 07:23:24;;;;;;;4.47;3.90;;;;;;;19.37;76.44;97616.50;5008455;28;20030;-80
2023/07/24 07:25:51;;;;;;;7.53;4.60;;;;;;;19.38;76.62;97618.88;5029337;28;20056;-80
2023/07/24 07:28:16;;;;;;;13.25;4.25;;;;;;;19.27;76.68;97592.53;5021612;28;20032;-80
2023/07/24 07:30:42;;;;;;;5.90;4.45;;;;;;;19.46;75.44;97611.00;5023172;28;20029;-80
2023/07/24 07:33:08;;;;;;;5.80;4.75;;;;;;;19.57;75.18;97609.44;5030037;28;20036;-81
2023/07/24 07:35:34;;;;;;;7.28;4.78;;;;;;;19.66;74.28;97600.06;5028549;28;20032;-80
2023/07/24 07:38:00;;;;;;;9.20;4.65;;;;;;;19.70;74.21;97600.19;5025257;28;20029;-81
2023/07/24 07:40:26;;;;;;;6.18;4.53;;;;;;;19.72;73.67;97585.19;5027536;28;20156;-80
2023/07/24 07:42:56;;;;;;;10.32;4.47;;;;;;;19.71;72.92;97588.22;5034652;28;20116;-80
2023/07/24 07:45:22;;;;;;;13.73;6.03;;;;;;;19.83;72.49;97589.00;5011067;28;20053;-80
2023/07/24 07:47:48;;;;;;;11.10;4.72;;;;;;;19.91;72.33;97579.19;5024363;28;20519;-80
2023/07/24 07:50:13;;;;;;;8.13;5.47;;;;;;;20.02;71.48;97591.16;5027115;28;20108;-80
2023/07/24 07:52:39;;;;;;;8.55;5.25;;;;;;;20.03;71.03;97588.09;5023991;28;20075;-80
2023/07/24 07:55:08;;;;;;;6.13;4.80;;;;;;;20.10;71.34;97587.53;5029440;28;20056;-81
2023/07/24 07:57:37;;;;;;;7.80;5.18;;;;;;;20.02;69.69;97589.25;5020632;28;20032;-81
2023/07/24 08:00:04;;;;;;;8.55;5.18;;;;;;;20.21;69.13;97610.34;5028908;28;20112;-81
2023/07/24 08:02:30;;;;;;;9.05;5.05;;;;;;;20.18;69.46;97590.13;5012914;28;20761;-80
2023/07/24 08:04:55;;;;;;;9.15;5.32;;;;;;;20.39;69.75;97606.28;5021007;28;20090;-80
2023/07/24 08:07:21;;;;;;;9.23;5.05;;;;;;;20.31;69.37;97609.13;5017013;28;20106;-81
2023/07/24 08:09:46;;;;;;;7.85;5.13;;;;;;;20.37;68.88;97624.78;5012804;28;20162;-80
2023/07/24 08:12:11;;;;;;;7.03;4.65;;;;;;;20.36;68.69;97623.19;5026884;28;20036;-80
2023/07/24 08:14:37;;;;;;;9.38;5.18;;;;;;;20.52;68.43;97618.66;5035956;28;20034;-80
2023/07/24 08:17:02;;;;;;;9.93;5.45;;;;;;;20.48;68.76;97620.47;5009957;28;20540;-81
2023/07/24 08:19:29;;;;;;;9.02;5.40;;;;;;;20.59;67.78;97613.47;5024389;28;20497;-80
2023/07/24 08:21:54;;;;;;;6.28;4.25;;;;;;;20.65;67.73;97625.63;5007533;28;20089;-80
2023/07/24 08:24:20;;;;;;;7.10;4.53;;;;;;;20.73;67.48;97619.28;5030930;28;20057;-80
2023/07/24 08:26:45;;;;;;;8.43;5.18;;;;;;;20.73;67.67;97618.47;5026655;28;20067;-81
2023/07/24 08:29:10;;;;;;;5.93;4.57;;;;;;;20.85;67.26;97613.03;5015881;28;20033;-81
2023/07/24 08:31:36;;;;;;;11.05;4.93;;;;;;;20.89;67.23;97620.13;5023849;28;20065;-81
2023/07/24 08:34:01;;;;;;;7.45;5.30;;;;;;;21.09;67.32;97606.72;5027249;28;20059;-81
2023/07/24 08:36:26;;;;;;;6.88;5.28;;;;;;;21.14;67.04;97628.19;4988557;28;20083;-81
2023/07/24 08:38:52;;;;;;;9.27;5.40;;;;;;;21.18;67.07;97627.16;5013758;28;20409;-81
2023/07/24 08:41:17;;;;;;;9.32;4.75;;;;;;;21.28;67.14;97634.00;5020914;28;20033;-81
2023/07/24 08:43:43;;;;;;;6.03;4.50;;;;;;;21.35;66.93;97636.91;5002220;28;20057;-80
2023/07/24 08:46:09;;;;;;;7.18;4.50;;;;;;;21.08;67.20;97630.34;5023734;28;20034;-80
2023/07/24 08:48:37;;;;;;;6.35;4.78;;;;;;;21.14;66.89;97636.34;5030795;28;20071;-80
2023/07/24 08:51:07;;;;;;;7.25;5.35;;;;;;;21.12;66.33;97644.03;5023064;28;20033;-80
2023/07/24 08:53:35;;;;;;;6.07;4.88;;;;;;;21.28;66.13;97639.41;5021413;28;20032;-80
2023/07/24 08:56:03;;;;;;;7.38;5.10;;;;;;;21.28;66.74;97629.38;5020284;28;20420;-80
2023/07/24 08:58:28;;;;;;;5.68;4.85;;;;;;;21.30;66.12;97623.56;5024584;28;20024;-80
2023/07/24 09:00:58;;;;;;;7.80;5.72;;;;;;;21.43;65.78;97633.22;5019353;28;20112;-80
2023/07/24 09:03:24;;;;;;;7.00;5.50;;;;;;;21.50;65.75;97633.41;5033853;28;20053;-80
2023/07/24 09:05:50;;;;;;;7.95;4.95;;;;;;;21.52;66.30;97633.84;5020026;28;21262;-80
2023/07/24 09:08:15;;;;;;;6.90;4.88;;;;;;;21.56;65.79;97632.81;5021700;28;20033;-80
2023/07/24 09:10:41;;;;;;;8.77;4.97;;;;;;;21.58;65.61;97622.38;5019852;28;20037;-80
2023/07/24 09:13:07;;;;;;;7.07;4.65;;;;;;;21.65;65.13;97613.63;5033464;28;20053;-80
2023/07/24 09:15:43;;;;;;;6.22;5.38;;;;;;;21.79;66.07;97611.28;5027940;28;20037;-80
2023/07/24 09:18:09;;;;;;;6.07;4.13;;;;;;;21.83;65.23;97620.31;4998928;28;20018;-80
2023/07/24 09:20:40;;;;;;;5.65;4.57;;;;;;;21.97;64.80;97622.59;5025784;28;20134;-80
2023/07/24 09:23:07;;;;;;;6.22;4.72;;;;;;;22.00;64.86;97621.88;5028909;28;20056;-80
2023/07/24 09:25:34;;;;;;;9.27;4.72;;;;;;;21.86;64.49;97611.50;5030988;28;20053;-80
2023/07/24 09:27:59;;;;;;;7.65;5.03;;;;;;;21.88;64.51;97609.22;5027296;28;20022;-80
2023/07/24 09:30:25;;;;;;;5.85;4.53;;;;;;;22.04;64.36;97615.41;5008633;28;20100;-80
2023/07/24 09:32:54;;;;;;;5.95;4.63;;;;;;;22.17;64.15;97606.00;5027797;28;20029;-80
2023/07/24 09:35:20;;;;;;;8.52;5.68;;;;;;;22.24;64.38;97602.66;5035846;28;20061;-80
2023/07/24 09:37:46;;;;;;;7.97;5.07;;;;;;;22.25;63.90;97586.00;5025451;28;20234;-80
2023/07/24 09:40:14;;;;;;;7.50;4.95;;;;;;;22.39;64.16;97594.44;5018515;28;20407;-80
2023/07/24 09:42:42;;;;;;;8.88;4.95;;;;;;;22.21;64.37;97570.75;5020392;28;20053;-80
2023/07/24 09:45:08;;;;;;;6.53;4.82;;;;;;;22.52;63.82;97594.34;5028821;28;20060;-80
2023/07/24 09:47:34;;;;;;;6.60;4.82;;;;;;;22.49;64.44;97573.28;5015405;28;20037;-80
2023/07/24 09:50:03;;;;;;;5.95;4.40;;;;;;;22.47;63.86;97578.28;5030914;28;20033;-81
2023/07/24 09:52:30;;;;;;;8.43;4.72;;;;;;;22.65;63.09;97584.94;5031772;28;20029;-80
2023/07/24 09:55:05;;;;;;;6.05;4.63;;;;;;;22.78;62.95;97576.25;5031318;28;20546;-80
2023/07/24 09:57:32;;;;;;;7.05;4.97;;;;;;;22.78;62.63;97564.59;5026044;28;20056;-80
2023/07/24 09:59:58;;;;;;;6.13;5.03;;;;;;;22.78;62.54;97575.47;5031641;28;20475;-80
2023/07/24 10:02:24;;;;;;;5.70;4.80;;;;;;;22.82;62.37;97560.81;5037772;28;20029;-80
2023/07/24 10:04:50;;;;;;;6.28;4.85;;;;;;;23.03;62.00;97563.13;5032880;28;20026;-80
2023/07/24 10:07:21;;;;;;;8.38;4.93;;;;;;;22.92;61.72;97562.94;5031030;28;20052;-80
2023/07/24 10:09:48;;;;;;;6.15;5.43;;;;;;;22.88;60.84;97566.72;5029178;28;20025;-80
2023/07/24 10:12:16;;;;;;;7.40;5.75;;;;;;;22.86;61.23;97558.13;5019885;28;20038;-80
2023/07/24 10:14:42;;;;;;;7.53;5.47;;;;;;;22.90;60.55;97553.53;5030425;28;20091;-80
2023/07/24 10:17:07;;;;;;;6.35;4.88;;;;;;;22.91;60.83;97552.41;5035278;28;20112;-81
2023/07/24 10:19:39;;;;;;;6.43;5.28;;;;;;;23.00;60.83;97552.94;5036014;28;20121;-80
2023/07/24 10:22:05;;;;;;;7.63;4.93;;;;;;;22.89;60.63;97546.53;5037616;28;20103;-80
2023/07/24 10:24:30;;;;;;;5.38;4.82;;;;;;;22.91;60.43;97542.28;5036114;28;20053;-80
2023/07/24 10:26:56;;;;;;;10.13;5.45;;;;;;;22.80;60.79;97527.69;5041118;28;20028;-80
2023/07/24 10:29:25;;;;;;;10.90;5.60;;;;;;;22.82;60.25;97527.34;4989621;28;20026;-80
2023/07/24 10:31:55;;;;;;;9.13;5.40;;;;;;;22.82;60.47;97530.88;5008093;28;20496;-80
2023/07/24 10:34:20;;;;;;;9.20;5.30;;;;;;;22.72;60.71;97547.75;5031897;28;20052;-80
2023/07/24 10:36:46;;;;;;;8.63;5.55;;;;;;;22.55;60.29;97520.97;5027912;28;20037;-80
2023/07/24 10:39:18;;;;;;;12.57;5.75;;;;;;;22.80;60.15;97543.25;5042983;28;20037;-80
2023/07/24 10:41:45;;;;;;;10.15;5.63;;;;;;;22.73;60.17;97527.59;5030583;28;20029;-80
2023/07/24 10:44:12;;;;;;;7.75;6.30;;;;;;;22.66;59.94;97532.09;5013821;28;20049;-80
2023/07/24 10:46:40;;;;;;;7.03;5.72;;;;;;;22.71;60.34;97537.25;5030597;28;20091;-80
2023/07/24 10:49:08;;;;;;;8.82;5.70;;;;;;;22.85;60.14;97537.50;5032955;28;20057;-80
2023/07/24 10:51:37;;;;;;;10.27;6.03;;;;;;;22.74;60.57;97531.06;5036164;28;20079;-80
2023/07/24 10:54:03;;;;;;;9.23;6.18;;;;;;;22.81;60.36;97529.28;5017606;28;20056;-80
2023/07/24 10:56:29;;;;;;;8.15;5.82;;;;;;;22.81;60.77;97528.50;5031174;28;20083;-80
2023/07/24 10:58:54;;;;;;;7.63;5.70;;;;;;;22.81;61.08;97544.81;5031992;28;20033;-80
2023/07/24 11:01:20;;;;;;;11.75;6.00;;;;;;;22.65;61.13;97530.53;5032090;28;20056;-80
2023/07/24 11:03:46;;;;;;;5.95;5.28;;;;;;;22.77;60.66;97539.31;5021302;28;20428;-80
2023/07/24 11:06:16;;;;;;;8.82;6.10;;;;;;;22.77;61.10;97531.16;5045180;28;20044;-80
2023/07/24 11:08:42;;;;;;;9.85;5.75;;;;;;;22.78;60.93;97542.84;5011610;28;20033;-80
2023/07/24 11:11:08;;;;;;;8.73;5.60;;;;;;;22.75;61.33;97535.38;5038991;28;20499;-80
2023/07/24 11:13:34;;;;;;;8.88;5.68;;;;;;;22.75;60.95;97533.44;5022650;28;20037;-80
2023/07/24 11:16:05;;;;;;;10.75;6.45;;;;;;;22.80;60.88;97532.38;5019641;28;20110;-80
2023/07/24 11:18:31;;;;;;;7.85;5.63;;;;;;;22.84;61.07;97538.66;5005322;28;20032;-80
2023/07/24 11:20:56;;;;;;;9.70;6.43;;;;;;;22.84;61.27;97541.38;5030039;28;20041;-80
2023/07/24 11:23:23;;;;;;;7.60;6.05;;;;;;;22.76;61.15;97529.56;5023427;28;20032;-80
2023/07/24 11:25:54;;;;;;;8.27;5.50;;;;;;;22.94;61.09;97538.06;5012542;28;20033;-79
2023/07/24 11:28:20;;;;;;;8.63;5.38;;;;;;;22.93;60.90;97523.66;5025807;28;20033;-80
2023/07/24 11:30:45;;;;;;;10.85;6.38;;;;;;;23.03;60.15;97533.97;5004316;28;20544;-79